createdAt,value
2023-02-25T00:01:02.374Z,86.22
2023-02-25T00:03:43.428Z,89.05
2023-02-25T00:06:21.286Z,94.30
2023-02-25T00:08:55.797Z,93.35
2023-02-25T00:11:31.477Z,95.88
2023-02-25T00:14:04.632Z,85.18
2023-02-25T00:16:49.631Z,98.70
2023-02-25T00:19:18.098Z,85.07
2023-02-25T00:21:52.005Z,92.50
2023-02-25T00:24:24.345Z,95.20
2023-02-25T00:26:57.587Z,91.40
2023-02-25T00:29:28.519Z,84.18
2023-02-25T00:32:04.206Z,88.65
2023-02-25T00:34:33.009Z,93.03
2023-02-25T00:37:00.812Z,95.32
2023-02-25T00:39:42.265Z,88.05
2023-02-25T00:42:16.025Z,95.50
2023-02-25T00:44:45.497Z,96.82
2023-02-25T00:47:14.479Z,97.25
2023-02-25T00:49:43.088Z,89.07
2023-02-25T00:52:13.168Z,96.20
2023-02-25T00:58:01.509Z,102.25
2023-02-25T01:00:55.986Z,102.50
2023-02-25T01:03:26.795Z,101.95
2023-02-25T01:06:00.740Z,103.45
2023-02-25T01:08:28.878Z,91.10
2023-02-25T01:10:58.373Z,105.05
2023-02-25T01:13:33.194Z,107.05
2023-02-25T01:16:02.515Z,106.82
2023-02-25T01:18:31.017Z,104.53
2023-02-25T01:21:00.718Z,107.57
2023-02-25T01:23:30.389Z,101.07
2023-02-25T01:26:02.885Z,100.30
2023-02-25T01:28:39.762Z,104.90
2023-02-25T01:31:27.107Z,101.15
2023-02-25T01:34:00.209Z,94.03
2023-02-25T01:36:31.296Z,94.75
2023-02-25T01:39:05.124Z,98.45
2023-02-25T01:41:36.152Z,103.07
2023-02-25T01:44:18.484Z,100.25
2023-02-25T01:46:59.399Z,89.97
2023-02-25T01:49:41.967Z,88.68
2023-02-25T01:52:21.939Z,89.47
2023-02-25T01:54:54.607Z,96.07
2023-02-25T01:57:23.898Z,94.35
2023-02-25T01:59:57.395Z,90.53
2023-02-25T02:02:30.823Z,86.30
2023-02-25T02:05:15.269Z,100.35
2023-02-25T02:11:18.786Z,81.78
2023-02-25T02:16:52.777Z,78.30
2023-02-25T02:19:32.267Z,78.97
2023-02-25T02:22:29.101Z,74.68
2023-02-25T02:25:17.155Z,72.53
2023-02-25T02:28:29.002Z,71.55
2023-02-25T02:38:17.267Z,77.30
2023-02-25T02:41:21.210Z,82.22
2023-02-25T02:43:57.220Z,83.72
2023-02-25T02:46:38.397Z,82.43
2023-02-25T02:49:19.125Z,74.55
2023-02-25T02:52:06.758Z,72.85
2023-02-25T02:54:38.359Z,75.57
2023-02-25T02:57:20.972Z,76.82
2023-02-25T03:00:15.176Z,81.50
2023-02-25T03:02:48.936Z,83.70
2023-02-25T03:05:24.917Z,82.45
2023-02-25T03:08:09.032Z,79.18
2023-02-25T03:10:53.167Z,83.43
2023-02-25T03:13:25.121Z,83.95
2023-02-25T03:15:58.719Z,88.50
2023-02-25T03:18:39.267Z,88.75
2023-02-25T03:21:21.694Z,91.40
2023-02-25T03:23:49.759Z,89.78
2023-02-25T03:26:21.875Z,94.53
2023-02-25T03:28:54.511Z,93.30
2023-02-25T03:31:59.667Z,82.45
2023-02-25T03:34:35.950Z,87.68
2023-02-25T03:37:18.653Z,82.63
2023-02-25T03:39:50.682Z,83.45
2023-02-25T03:42:27.600Z,83.35
2023-02-25T03:45:01.039Z,81.78
2023-02-25T03:47:33.127Z,83.13
2023-02-25T03:50:23.295Z,81.53
2023-02-25T03:52:55.866Z,77.68
2023-02-25T03:55:44.847Z,71.07
2023-02-25T03:58:12.411Z,70.85
2023-02-25T04:00:42.843Z,74.07
2023-02-25T04:03:10.753Z,70.43
2023-02-25T04:05:39.087Z,73.15
2023-02-25T04:08:15.873Z,76.65
2023-02-25T04:10:46.482Z,75.88
2023-02-25T04:13:16.875Z,74.20
2023-02-25T04:15:45.715Z,71.20
2023-02-25T04:18:13.484Z,71.82
2023-02-25T04:20:41.813Z,71.40
2023-02-25T04:23:13.308Z,72.78
2023-02-25T04:25:41.139Z,70.80
2023-02-25T04:28:09.054Z,71.50
2023-02-25T04:30:37.200Z,69.50
2023-02-25T04:33:05.291Z,69.93
2023-02-25T04:35:32.811Z,69.05
2023-02-25T04:38:00.295Z,67.53
2023-02-25T04:40:28.169Z,71.68
2023-02-25T04:42:55.732Z,73.88
2023-02-25T04:45:27.017Z,60.95
2023-02-25T04:47:58.142Z,66.18
2023-02-25T04:50:26.385Z,64.35
2023-02-25T04:52:54.284Z,69.18
2023-02-25T04:55:21.815Z,69.18
2023-02-25T04:57:49.341Z,63.42
2023-02-25T05:00:20.274Z,66.05
2023-02-25T05:02:48.614Z,69.72
2023-02-25T05:05:16.933Z,57.80
2023-02-25T05:07:44.577Z,70.10
2023-02-25T05:10:14.727Z,60.60
2023-02-25T05:12:42.674Z,69.20
2023-02-25T05:15:11.286Z,68.22
2023-02-25T05:17:39.080Z,66.03
2023-02-25T05:20:12.041Z,72.90
2023-02-25T05:22:40.909Z,74.82
2023-02-25T05:25:09.676Z,76.22
2023-02-25T05:27:37.414Z,72.28
2023-02-25T05:30:05.612Z,72.97
2023-02-25T05:32:33.359Z,71.05
2023-02-25T05:35:00.869Z,71.82
2023-02-25T05:37:28.572Z,71.38
2023-02-25T05:39:56.044Z,71.90
2023-02-25T05:42:23.759Z,72.68
2023-02-25T05:44:53.158Z,64.63
2023-02-25T05:47:20.950Z,75.55
2023-02-25T05:49:48.428Z,68.65
2023-02-25T05:52:16.037Z,71.55
2023-02-25T05:54:43.597Z,59.72
2023-02-25T05:57:11.086Z,63.95
2023-02-25T05:59:38.754Z,63.50
2023-02-25T06:02:06.479Z,65.82
2023-02-25T06:04:34.276Z,67.75
2023-02-25T06:07:03.365Z,58.63
2023-02-25T06:09:32.403Z,75.97
2023-02-25T06:12:00.440Z,64.72
2023-02-25T06:14:27.970Z,74.72
2023-02-25T06:16:57.000Z,72.78
2023-02-25T06:19:28.942Z,64.68
2023-02-25T06:21:56.659Z,60.83
2023-02-25T06:24:24.810Z,71.32
2023-02-25T06:26:52.264Z,71.38
2023-02-25T06:29:19.836Z,69.15
2023-02-25T06:31:47.423Z,69.38
2023-02-25T06:34:14.945Z,65.80
2023-02-25T06:36:42.529Z,65.63
2023-02-25T06:39:11.595Z,68.07
2023-02-25T06:41:39.132Z,71.72
2023-02-25T06:44:06.933Z,69.10
2023-02-25T06:46:34.407Z,74.30
2023-02-25T06:49:01.820Z,62.15
2023-02-25T06:51:29.338Z,74.40
2023-02-25T06:53:57.434Z,69.47
2023-02-25T06:56:26.809Z,59.13
2023-02-25T06:58:54.464Z,66.55
2023-02-25T07:01:21.919Z,61.03
2023-02-25T07:03:49.665Z,54.97
2023-02-25T07:06:18.502Z,58.97
2023-02-25T07:08:46.235Z,64.88
2023-02-25T07:11:18.937Z,58.70
2023-02-25T07:13:50.804Z,60.28
2023-02-25T07:16:18.809Z,56.30
2023-02-25T07:18:47.438Z,59.92
2023-02-25T07:21:15.920Z,54.17
2023-02-25T07:23:43.904Z,57.28
2023-02-25T07:26:13.273Z,55.38
2023-02-25T07:28:41.130Z,55.13
2023-02-25T07:31:14.658Z,56.70
2023-02-25T07:33:42.192Z,50.50
2023-02-25T07:36:11.669Z,50.60
2023-02-25T07:38:39.606Z,55.78
2023-02-25T07:41:11.623Z,53.25
2023-02-25T07:43:39.965Z,50.40
2023-02-25T07:46:08.636Z,55.22
2023-02-25T07:48:36.563Z,49.55
2023-02-25T07:51:27.228Z,51.35
2023-02-25T07:53:59.999Z,50.33
2023-02-25T07:56:30.158Z,51.95
2023-02-25T07:58:58.014Z,53.85
2023-02-25T08:01:33.185Z,56.00
2023-02-25T08:04:06.178Z,50.75
2023-02-25T08:06:39.796Z,56.10
2023-02-25T08:09:08.132Z,50.45
2023-02-25T08:11:35.950Z,58.42
2023-02-25T08:14:05.070Z,49.53
2023-02-25T08:16:33.593Z,53.17
2023-02-25T08:19:01.344Z,47.17
2023-02-25T08:21:30.866Z,49.38
2023-02-25T08:23:59.546Z,52.95
2023-02-25T08:26:27.858Z,47.63
2023-02-25T08:28:57.656Z,45.63
2023-02-25T08:31:29.079Z,44.55
2023-02-25T08:33:58.070Z,44.33
2023-02-25T08:36:29.045Z,44.53
2023-02-25T08:38:57.815Z,43.83
2023-02-25T08:41:28.248Z,44.83
2023-02-25T08:43:58.389Z,49.05
2023-02-25T08:46:28.297Z,40.65
2023-02-25T08:48:56.182Z,46.78
2023-02-25T08:51:26.586Z,47.13
2023-02-25T08:53:54.389Z,42.42
2023-02-25T08:56:22.753Z,39.88
2023-02-25T08:58:52.841Z,48.83
2023-02-25T09:01:24.028Z,40.03
2023-02-25T09:03:55.942Z,35.10
2023-02-25T09:06:27.918Z,53.80
2023-02-25T09:09:00.621Z,41.80
2023-02-25T09:11:28.134Z,43.70
2023-02-25T09:13:56.085Z,41.58
2023-02-25T09:16:23.643Z,42.60
2023-02-25T09:18:51.746Z,100.25
2023-02-25T09:21:20.255Z,53.33
2023-02-25T09:23:47.979Z,51.60
2023-02-25T09:26:15.494Z,54.45
2023-02-25T09:28:43.162Z,42.88
2023-02-25T09:31:13.555Z,88.82
2023-02-25T09:33:44.847Z,45.00
2023-02-25T09:36:17.422Z,72.80
2023-02-25T09:38:46.567Z,50.83
2023-02-25T09:41:28.286Z,40.78
2023-02-25T09:44:25.058Z,108.75
2023-02-25T09:47:17.434Z,41.70
2023-02-25T09:50:00.037Z,45.15
2023-02-25T09:52:54.362Z,46.20
2023-02-25T09:55:33.487Z,43.42
2023-02-25T09:58:12.282Z,44.38
2023-02-25T10:01:12.539Z,39.97
2023-02-25T10:03:56.862Z,36.15
2023-02-25T10:06:47.244Z,37.70
2023-02-25T10:09:37.472Z,34.92
2023-02-25T10:12:13.409Z,37.03
2023-02-25T10:14:52.349Z,32.78
2023-02-25T10:17:31.739Z,30.25
2023-02-25T10:20:21.549Z,26.48
2023-02-25T10:23:04.685Z,24.90
2023-02-25T10:25:40.921Z,29.00
2023-02-25T10:28:17.698Z,25.45
2023-02-25T10:30:48.533Z,32.50
2023-02-25T10:33:22.549Z,30.83
2023-02-25T10:36:00.474Z,27.17
2023-02-25T10:38:28.199Z,26.27
2023-02-25T10:40:58.320Z,27.88
2023-02-25T10:43:30.157Z,28.95
2023-02-25T10:46:09.514Z,23.98
2023-02-25T10:48:42.542Z,21.80
2023-02-25T10:51:15.252Z,31.63
2023-02-25T10:53:58.281Z,24.33
2023-02-25T10:56:30.828Z,23.15
2023-02-25T10:59:31.600Z,25.10
2023-02-25T11:02:01.156Z,23.60
2023-02-25T11:04:38.858Z,25.35
2023-02-25T11:07:38.900Z,15.68
2023-02-25T11:10:17.432Z,21.73
2023-02-25T11:12:48.698Z,24.50
2023-02-25T11:15:44.140Z,20.08
2023-02-25T11:18:23.497Z,19.33
2023-02-25T11:20:57.175Z,20.88
2023-02-25T11:23:39.597Z,17.97
2023-02-25T11:26:08.296Z,24.25
2023-02-25T11:28:55.602Z,21.42
2023-02-25T11:31:33.384Z,22.77
2023-02-25T11:34:05.217Z,21.27
2023-02-25T11:36:40.391Z,30.08
2023-02-25T11:39:18.665Z,23.30
2023-02-25T11:41:49.587Z,18.08
2023-02-25T11:44:40.168Z,26.92
2023-02-25T11:47:25.736Z,23.73
2023-02-25T11:50:06.478Z,20.65
2023-02-25T11:52:49.188Z,18.88
2023-02-25T11:55:43.888Z,17.80
2023-02-25T11:58:23.430Z,21.20
2023-02-25T12:01:17.390Z,14.73
2023-02-25T12:03:47.775Z,18.55
2023-02-25T12:06:24.383Z,19.77
2023-02-25T12:09:31.489Z,17.60
2023-02-25T12:12:23.242Z,14.85
2023-02-25T12:14:56.529Z,17.45
2023-02-25T12:17:39.235Z,19.15
2023-02-25T12:20:29.700Z,13.50
2023-02-25T12:23:25.236Z,17.20
2023-02-25T12:25:52.683Z,16.05
2023-02-25T12:28:45.681Z,15.35
2023-02-25T12:31:41.619Z,12.23
2023-02-25T12:34:35.454Z,13.73
2023-02-25T12:37:06.288Z,19.58
2023-02-25T12:39:54.933Z,16.40
2023-02-25T12:43:03.217Z,17.88
2023-02-25T12:46:03.212Z,16.95
2023-02-25T12:48:34.190Z,20.73
2023-02-25T12:51:27.540Z,15.48
2023-02-25T12:54:16.363Z,14.10
2023-02-25T12:57:05.685Z,16.27
2023-02-25T12:59:45.811Z,18.40
2023-02-25T13:02:37.513Z,15.85
2023-02-25T13:05:23.473Z,20.10
2023-02-25T13:08:18.584Z,16.73
2023-02-25T13:13:48.726Z,19.80
2023-02-25T13:16:45.083Z,22.58
2023-02-25T13:19:50.198Z,16.13
2023-02-25T13:22:20.355Z,15.38
2023-02-25T13:25:19.845Z,11.90
2023-02-25T13:28:11.802Z,16.63
2023-02-25T13:30:47.266Z,11.65
2023-02-25T13:33:42.441Z,19.00
2023-02-25T13:36:26.608Z,15.05
2023-02-25T13:39:12.929Z,18.65
2023-02-25T13:41:59.981Z,14.38
2023-02-25T13:45:00.944Z,20.50
2023-02-25T13:47:32.000Z,20.90
2023-02-25T13:50:40.824Z,16.00
2023-02-25T13:53:25.887Z,22.15
2023-02-25T13:56:05.588Z,20.48
2023-02-25T13:58:57.692Z,20.00
2023-02-25T14:01:51.002Z,18.35
2023-02-25T14:04:38.226Z,24.30
2023-02-25T14:07:45.434Z,16.48
2023-02-25T14:10:21.790Z,15.75
2023-02-25T14:13:07.365Z,19.17
2023-02-25T14:16:08.577Z,17.98
2023-02-25T14:19:13.355Z,21.52
2023-02-25T14:22:20.236Z,23.33
2023-02-25T14:29:16.630Z,24.88
2023-02-25T14:32:22.106Z,27.20
2023-02-25T14:35:37.878Z,19.25
2023-02-25T14:38:36.729Z,16.83
2023-02-25T14:41:23.299Z,22.27
2023-02-25T14:43:58.368Z,19.15
2023-02-25T14:46:43.372Z,25.05
2023-02-25T14:49:48.583Z,27.23
2023-02-25T14:55:22.352Z,19.98
2023-02-25T14:58:29.085Z,22.55
2023-02-25T15:01:43.207Z,21.85
2023-02-25T15:04:23.353Z,26.02
2023-02-25T15:07:41.294Z,20.60
2023-02-25T15:10:32.961Z,19.08
2023-02-25T15:13:23.407Z,35.80
2023-02-25T15:16:25.603Z,20.83
2023-02-25T15:19:17.492Z,22.80
2023-02-25T15:21:55.030Z,24.30
2023-02-25T15:24:29.076Z,27.20
2023-02-25T15:27:00.647Z,29.75
2023-02-25T15:29:33.885Z,22.33
2023-02-25T15:32:24.790Z,23.10
2023-02-25T15:35:01.305Z,32.92
2023-02-25T15:37:34.001Z,24.65
2023-02-25T15:40:17.098Z,27.98
2023-02-25T15:42:49.596Z,27.15
2023-02-25T15:45:37.358Z,28.55
2023-02-25T15:48:08.054Z,28.42
2023-02-25T15:50:47.280Z,30.33
2023-02-25T15:53:25.119Z,25.83
2023-02-25T15:58:45.521Z,32.95
2023-02-25T16:01:27.357Z,27.70
2023-02-25T16:04:06.569Z,28.25
2023-02-25T16:06:41.572Z,31.20
2023-02-25T16:09:18.377Z,29.65
2023-02-25T16:11:56.211Z,36.42
2023-02-25T16:14:33.887Z,27.92
2023-02-25T16:17:14.899Z,28.83
2023-02-25T16:19:43.443Z,27.13
2023-02-25T16:22:17.654Z,32.10
2023-02-25T16:24:54.789Z,33.80
2023-02-25T16:27:36.676Z,27.88
2023-02-25T16:30:21.188Z,27.38
2023-02-25T16:33:08.247Z,30.00
2023-02-25T16:35:55.364Z,29.20
2023-02-25T16:38:45.496Z,26.73
2023-02-25T16:41:15.162Z,35.10
2023-02-25T16:43:45.922Z,26.70
2023-02-25T16:46:22.027Z,33.75
2023-02-25T16:48:54.863Z,30.45
2023-02-25T16:51:25.000Z,34.88
2023-02-25T16:53:59.287Z,30.90
2023-02-25T16:56:34.498Z,30.27
2023-02-25T16:59:11.273Z,38.20
2023-02-25T17:01:39.882Z,28.70
2023-02-25T17:04:37.007Z,36.40
2023-02-25T17:07:22.408Z,29.80
2023-02-25T17:10:02.275Z,30.98
2023-02-25T17:12:48.375Z,35.80
2023-02-25T17:15:28.041Z,37.83
2023-02-25T17:18:02.631Z,36.58
2023-02-25T17:23:00.001Z,39.28
2023-02-25T17:25:38.239Z,34.30
2023-02-25T17:28:08.039Z,31.15
2023-02-25T17:30:46.388Z,30.85
2023-02-25T17:33:34.788Z,33.33
2023-02-25T17:36:10.059Z,32.90
2023-02-25T17:38:39.258Z,28.52
2023-02-25T17:41:08.838Z,42.05
2023-02-25T17:43:42.023Z,45.47
2023-02-25T17:46:24.904Z,39.63
2023-02-25T17:48:57.105Z,32.13
2023-02-25T17:51:38.985Z,32.30
2023-02-25T17:54:25.266Z,36.38
2023-02-25T17:57:03.485Z,36.08
2023-02-25T18:00:09.099Z,36.28
2023-02-25T18:03:24.048Z,43.50
2023-02-25T18:06:11.918Z,34.45
2023-02-25T18:11:40.222Z,38.00
2023-02-25T18:14:43.694Z,40.08
2023-02-25T18:24:34.571Z,46.10
2023-02-25T18:27:29.462Z,47.97
2023-02-25T18:30:18.592Z,55.20
2023-02-25T18:33:10.130Z,47.78
2023-02-25T18:35:43.421Z,56.78
2023-02-25T18:38:51.220Z,52.38
2023-02-25T18:41:18.971Z,57.83
2023-02-25T18:43:46.990Z,54.72
2023-02-25T18:46:15.721Z,51.45
2023-02-25T18:48:43.394Z,48.03
2023-02-25T18:51:14.280Z,51.55
2023-02-25T18:53:42.402Z,60.20
2023-02-25T18:56:16.308Z,62.30
2023-02-25T18:58:52.893Z,56.42
2023-02-25T19:01:27.458Z,52.75
2023-02-25T19:06:46.854Z,55.38
2023-02-25T19:09:14.613Z,63.40
2023-02-25T19:11:42.155Z,58.05
2023-02-25T20:06:27.800Z,57.83
2023-02-25T20:17:25.102Z,73.28
2023-02-25T20:19:53.752Z,58.92
2023-02-25T20:29:47.438Z,63.88
2023-02-25T21:39:30.214Z,61.55
2023-02-25T21:41:59.011Z,61.03
2023-02-25T21:44:27.501Z,69.30
2023-02-25T21:47:01.380Z,60.50
2023-02-25T21:49:33.944Z,63.97
2023-02-25T21:52:02.382Z,66.60
2023-02-25T21:54:30.211Z,65.25
2023-02-25T21:57:08.438Z,63.83
2023-02-25T21:59:36.547Z,75.03
2023-02-25T22:02:04.288Z,60.80
2023-02-25T22:04:35.645Z,64.80
2023-02-25T22:07:03.174Z,70.20
2023-02-25T22:09:33.931Z,68.65
2023-02-25T22:12:02.719Z,68.45
2023-02-25T22:14:30.677Z,73.82
2023-02-25T22:17:01.558Z,69.90
2023-02-25T22:19:31.254Z,65.07
2023-02-25T22:21:58.769Z,62.22
2023-02-25T22:24:26.329Z,68.10
2023-02-25T22:26:58.915Z,69.03
2023-02-25T22:29:26.492Z,66.45
2023-02-25T22:31:54.164Z,70.10
2023-02-25T22:34:24.230Z,69.10
2023-02-25T22:36:59.450Z,66.00
2023-02-25T22:39:27.159Z,65.28
2023-02-25T22:41:54.648Z,71.45
2023-02-25T22:44:22.663Z,75.40
2023-02-25T22:46:52.040Z,67.38
2023-02-25T22:49:19.920Z,61.22
2023-02-25T22:51:55.747Z,66.82
2023-02-25T22:54:27.527Z,67.15
2023-02-25T22:56:56.782Z,68.88
2023-02-25T22:59:31.323Z,65.68
2023-02-25T23:04:27.976Z,74.47
2023-02-25T23:06:58.002Z,68.32
2023-02-25T23:09:37.414Z,72.60
2023-02-25T23:12:05.821Z,69.35
2023-02-25T23:14:35.026Z,71.53
2023-02-25T23:17:02.707Z,71.97
2023-02-25T23:19:33.379Z,66.28
2023-02-25T23:22:00.936Z,64.63
2023-02-25T23:24:28.397Z,70.93
2023-02-25T23:27:00.945Z,71.38
2023-02-25T23:29:28.444Z,64.07
2023-02-25T23:31:56.185Z,66.28
2023-02-25T23:34:24.896Z,63.20
2023-02-25T23:36:56.504Z,69.75
2023-02-25T23:39:25.249Z,66.78
2023-02-25T23:41:52.704Z,73.43
2023-02-25T23:44:20.536Z,77.95
2023-02-25T23:46:48.589Z,66.30
2023-02-25T23:49:17.314Z,74.13
2023-02-25T23:51:47.469Z,77.22
2023-02-25T23:54:17.437Z,65.80
2023-02-25T23:56:45.427Z,68.90
2023-02-25T23:59:14.111Z,70.32
